Rosston, Texas
Current Conditions -  °F | °C
As of 12:55 AM on Monday 22 Dec 2014 (Local Time) from KLUD Reporting Station
Scattered Clouds Scattered Clouds  
Wind Chill: 50°   Ceiling: Unl
Heat Index: 50°   Visibility: 10mi
Dew Point: 48°   Wind: 14mph
Humidity: 94%   Direction: 190°S
Pressure: 29.65"   Gusts: 21mph
Location:  33.48°N, 97.44°W
Report Text: KLUD 220655Z AUTO 19012G18KT 10SM SCT012 SCT018 10/09 A2965 RMK AO2 T01000090
Loading
Personal Weather Stations






























Interactive Weather Map New forecast layout! Learn more

10-Day Weather Forecast

Advertisements
Track Severe Weather on mobile